sensor_id;sensor_type;location;lat;lon;timestamp;P1;durP1;ratioP1;P2;durP2;ratioP2
64597;SDS011;51004;54.692;9.332;2023-07-29T00:02:05;9.15;;;8.25;;
64597;SDS011;51004;54.692;9.332;2023-07-29T00:04:31;9.13;;;8.23;;
64597;SDS011;51004;54.692;9.332;2023-07-29T00:06:57;8.63;;;7.65;;
64597;SDS011;51004;54.692;9.332;2023-07-29T00:09:23;8.80;;;7.90;;
64597;SDS011;51004;54.692;9.332;2023-07-29T00:11:49;10.10;;;8.45;;
64597;SDS011;51004;54.692;9.332;2023-07-29T00:14:15;9.55;;;8.00;;
64597;SDS011;51004;54.692;9.332;2023-07-29T00:16:41;8.98;;;8.07;;
64597;SDS011;51004;54.692;9.332;2023-07-29T00:19:07;8.80;;;7.82;;
64597;SDS011;51004;54.692;9.332;2023-07-29T00:21:33;8.88;;;7.13;;
64597;SDS011;51004;54.692;9.332;2023-07-29T00:24:00;9.73;;;7.63;;
64597;SDS011;51004;54.692;9.332;2023-07-29T00:26:26;8.55;;;7.35;;
64597;SDS011;51004;54.692;9.332;2023-07-29T00:28:54;8.38;;;7.32;;
64597;SDS011;51004;54.692;9.332;2023-07-29T00:31:20;8.15;;;7.10;;
64597;SDS011;51004;54.692;9.332;2023-07-29T00:33:46;10.30;;;8.02;;
64597;SDS011;51004;54.692;9.332;2023-07-29T00:36:11;8.77;;;7.88;;
64597;SDS011;51004;54.692;9.332;2023-07-29T00:38:37;9.30;;;7.50;;
64597;SDS011;51004;54.692;9.332;2023-07-29T00:41:05;10.00;;;7.05;;
64597;SDS011;51004;54.692;9.332;2023-07-29T00:43:31;9.65;;;7.85;;
64597;SDS011;51004;54.692;9.332;2023-07-29T00:45:57;8.60;;;7.70;;
64597;SDS011;51004;54.692;9.332;2023-07-29T00:48:24;8.63;;;7.63;;
64597;SDS011;51004;54.692;9.332;2023-07-29T00:50:50;8.13;;;7.07;;
64597;SDS011;51004;54.692;9.332;2023-07-29T00:53:16;7.82;;;7.03;;
64597;SDS011;51004;54.692;9.332;2023-07-29T00:55:42;7.53;;;6.82;;
64597;SDS011;51004;54.692;9.332;2023-07-29T00:58:09;8.40;;;7.18;;
64597;SDS011;51004;54.692;9.332;2023-07-29T01:00:35;7.97;;;6.80;;
64597;SDS011;51004;54.692;9.332;2023-07-29T01:03:01;8.50;;;6.88;;
64597;SDS011;51004;54.692;9.332;2023-07-29T01:05:30;9.75;;;7.30;;
64597;SDS011;51004;54.692;9.332;2023-07-29T01:08:21;8.05;;;7.00;;
64597;SDS011;51004;54.692;9.332;2023-07-29T01:10:54;8.15;;;6.97;;
64597;SDS011;51004;54.692;9.332;2023-07-29T01:16:00;7.75;;;6.65;;
64597;SDS011;51004;54.692;9.332;2023-07-29T01:18:28;7.25;;;6.55;;
64597;SDS011;51004;54.692;9.332;2023-07-29T01:20:58;7.57;;;6.45;;
64597;SDS011;51004;54.692;9.332;2023-07-29T01:23:25;7.82;;;6.43;;
64597;SDS011;51004;54.692;9.332;2023-07-29T01:25:51;6.78;;;5.88;;
64597;SDS011;51004;54.692;9.332;2023-07-29T01:28:17;8.35;;;6.45;;
64597;SDS011;51004;54.692;9.332;2023-07-29T01:30:43;6.93;;;5.60;;
64597;SDS011;51004;54.692;9.332;2023-07-29T01:33:11;6.20;;;5.60;;
64597;SDS011;51004;54.692;9.332;2023-07-29T01:35:42;7.07;;;6.38;;
64597;SDS011;51004;54.692;9.332;2023-07-29T01:40:40;8.05;;;7.20;;
64597;SDS011;51004;54.692;9.332;2023-07-29T01:43:08;7.10;;;6.38;;
64597;SDS011;51004;54.692;9.332;2023-07-29T01:45:34;9.23;;;7.45;;
64597;SDS011;51004;54.692;9.332;2023-07-29T01:48:07;8.07;;;7.25;;
64597;SDS011;51004;54.692;9.332;2023-07-29T01:50:33;9.32;;;8.20;;
64597;SDS011;51004;54.692;9.332;2023-07-29T01:52:59;8.50;;;7.00;;
64597;SDS011;51004;54.692;9.332;2023-07-29T01:55:25;10.27;;;6.90;;
64597;SDS011;51004;54.692;9.332;2023-07-29T01:57:51;7.57;;;6.28;;
64597;SDS011;51004;54.692;9.332;2023-07-29T02:00:18;8.88;;;6.10;;
64597;SDS011;51004;54.692;9.332;2023-07-29T02:02:44;8.73;;;7.70;;
64597;SDS011;51004;54.692;9.332;2023-07-29T02:05:10;8.05;;;7.25;;
64597;SDS011;51004;54.692;9.332;2023-07-29T02:07:36;9.43;;;8.32;;
64597;SDS011;51004;54.692;9.332;2023-07-29T02:10:02;8.27;;;7.47;;
64597;SDS011;51004;54.692;9.332;2023-07-29T02:12:28;8.88;;;6.93;;
64597;SDS011;51004;54.692;9.332;2023-07-29T02:14:54;7.28;;;6.57;;
64597;SDS011;51004;54.692;9.332;2023-07-29T02:17:19;8.85;;;7.82;;
64597;SDS011;51004;54.692;9.332;2023-07-29T02:19:46;9.50;;;7.50;;
64597;SDS011;51004;54.692;9.332;2023-07-29T02:22:16;8.32;;;7.53;;
64597;SDS011;51004;54.692;9.332;2023-07-29T02:24:42;9.25;;;7.75;;
64597;SDS011;51004;54.692;9.332;2023-07-29T02:27:09;9.32;;;7.45;;
64597;SDS011;51004;54.692;9.332;2023-07-29T02:29:35;8.55;;;7.68;;
64597;SDS011;51004;54.692;9.332;2023-07-29T02:32:01;7.43;;;6.72;;
64597;SDS011;51004;54.692;9.332;2023-07-29T02:34:27;7.68;;;6.75;;
64597;SDS011;51004;54.692;9.332;2023-07-29T02:36:53;7.45;;;6.75;;
64597;SDS011;51004;54.692;9.332;2023-07-29T02:39:19;8.05;;;6.75;;
64597;SDS011;51004;54.692;9.332;2023-07-29T02:41:45;8.40;;;6.68;;
64597;SDS011;51004;54.692;9.332;2023-07-29T02:44:11;11.45;;;8.25;;
64597;SDS011;51004;54.692;9.332;2023-07-29T02:46:37;10.23;;;9.13;;
64597;SDS011;51004;54.692;9.332;2023-07-29T02:49:03;9.88;;;8.85;;
64597;SDS011;51004;54.692;9.332;2023-07-29T02:51:29;10.95;;;8.13;;
64597;SDS011;51004;54.692;9.332;2023-07-29T02:53:55;9.70;;;8.20;;
64597;SDS011;51004;54.692;9.332;2023-07-29T02:56:21;10.88;;;9.32;;
64597;SDS011;51004;54.692;9.332;2023-07-29T02:58:47;9.82;;;8.55;;
64597;SDS011;51004;54.692;9.332;2023-07-29T03:01:13;10.23;;;7.85;;
64597;SDS011;51004;54.692;9.332;2023-07-29T03:03:39;11.25;;;9.57;;
64597;SDS011;51004;54.692;9.332;2023-07-29T03:06:05;10.18;;;9.10;;
64597;SDS011;51004;54.692;9.332;2023-07-29T03:08:31;10.32;;;8.70;;
64597;SDS011;51004;54.692;9.332;2023-07-29T03:10:58;13.10;;;8.95;;
64597;SDS011;51004;54.692;9.332;2023-07-29T03:13:24;9.77;;;8.60;;
64597;SDS011;51004;54.692;9.332;2023-07-29T03:15:50;10.57;;;8.77;;
64597;SDS011;51004;54.692;9.332;2023-07-29T03:18:17;11.15;;;8.95;;
64597;SDS011;51004;54.692;9.332;2023-07-29T03:20:42;10.43;;;9.00;;
64597;SDS011;51004;54.692;9.332;2023-07-29T03:23:08;9.98;;;8.98;;
64597;SDS011;51004;54.692;9.332;2023-07-29T03:25:34;9.73;;;8.73;;
64597;SDS011;51004;54.692;9.332;2023-07-29T03:28:00;9.80;;;8.80;;
64597;SDS011;51004;54.692;9.332;2023-07-29T03:30:26;9.90;;;8.88;;
64597;SDS011;51004;54.692;9.332;2023-07-29T03:32:52;11.02;;;9.30;;
64597;SDS011;51004;54.692;9.332;2023-07-29T03:35:18;10.25;;;8.93;;
64597;SDS011;51004;54.692;9.332;2023-07-29T03:37:44;10.32;;;8.82;;
64597;SDS011;51004;54.692;9.332;2023-07-29T03:40:10;10.57;;;9.20;;
64597;SDS011;51004;54.692;9.332;2023-07-29T03:42:36;11.27;;;9.52;;
64597;SDS011;51004;54.692;9.332;2023-07-29T03:45:02;11.18;;;9.73;;
64597;SDS011;51004;54.692;9.332;2023-07-29T03:47:28;11.05;;;8.77;;
64597;SDS011;51004;54.692;9.332;2023-07-29T03:49:54;10.32;;;9.07;;
64597;SDS011;51004;54.692;9.332;2023-07-29T03:52:20;10.85;;;9.57;;
64597;SDS011;51004;54.692;9.332;2023-07-29T03:54:46;12.52;;;9.05;;
64597;SDS011;51004;54.692;9.332;2023-07-29T03:57:12;11.90;;;9.02;;
64597;SDS011;51004;54.692;9.332;2023-07-29T03:59:38;12.00;;;9.00;;
64597;SDS011;51004;54.692;9.332;2023-07-29T04:02:04;10.40;;;9.32;;
64597;SDS011;51004;54.692;9.332;2023-07-29T04:04:30;9.90;;;8.85;;
64597;SDS011;51004;54.692;9.332;2023-07-29T04:06:56;12.00;;;9.15;;
64597;SDS011;51004;54.692;9.332;2023-07-29T04:09:22;10.85;;;9.27;;
64597;SDS011;51004;54.692;9.332;2023-07-29T04:11:48;9.88;;;8.73;;
64597;SDS011;51004;54.692;9.332;2023-07-29T04:14:14;11.40;;;9.80;;
64597;SDS011;51004;54.692;9.332;2023-07-29T04:16:40;12.43;;;9.73;;
64597;SDS011;51004;54.692;9.332;2023-07-29T04:19:06;11.32;;;9.52;;
64597;SDS011;51004;54.692;9.332;2023-07-29T04:21:32;11.98;;;9.98;;
64597;SDS011;51004;54.692;9.332;2023-07-29T04:23:58;10.73;;;9.50;;
64597;SDS011;51004;54.692;9.332;2023-07-29T04:26:24;10.82;;;9.30;;
64597;SDS011;51004;54.692;9.332;2023-07-29T04:28:50;10.77;;;9.15;;
64597;SDS011;51004;54.692;9.332;2023-07-29T04:31:16;11.02;;;9.32;;
64597;SDS011;51004;54.692;9.332;2023-07-29T04:33:42;11.85;;;9.57;;
64597;SDS011;51004;54.692;9.332;2023-07-29T04:36:07;11.20;;;9.40;;
64597;SDS011;51004;54.692;9.332;2023-07-29T04:38:34;10.95;;;9.75;;
64597;SDS011;51004;54.692;9.332;2023-07-29T04:41:00;11.25;;;9.93;;
64597;SDS011;51004;54.692;9.332;2023-07-29T04:43:27;12.25;;;9.98;;
64597;SDS011;51004;54.692;9.332;2023-07-29T04:45:53;11.82;;;9.65;;
64597;SDS011;51004;54.692;9.332;2023-07-29T04:48:19;11.80;;;9.43;;
64597;SDS011;51004;54.692;9.332;2023-07-29T04:50:45;12.82;;;9.27;;
64597;SDS011;51004;54.692;9.332;2023-07-29T04:53:11;10.55;;;8.98;;
64597;SDS011;51004;54.692;9.332;2023-07-29T04:55:37;11.85;;;8.82;;
64597;SDS011;51004;54.692;9.332;2023-07-29T04:58:03;11.00;;;9.57;;
64597;SDS011;51004;54.692;9.332;2023-07-29T05:00:29;12.85;;;9.15;;
64597;SDS011;51004;54.692;9.332;2023-07-29T05:02:55;11.38;;;9.13;;
64597;SDS011;51004;54.692;9.332;2023-07-29T05:05:21;10.85;;;9.05;;
64597;SDS011;51004;54.692;9.332;2023-07-29T05:07:47;9.75;;;8.40;;
64597;SDS011;51004;54.692;9.332;2023-07-29T05:10:13;9.82;;;8.80;;
64597;SDS011;51004;54.692;9.332;2023-07-29T05:12:39;11.13;;;9.23;;
64597;SDS011;51004;54.692;9.332;2023-07-29T05:15:05;10.25;;;9.10;;
64597;SDS011;51004;54.692;9.332;2023-07-29T05:17:31;10.18;;;8.90;;
64597;SDS011;51004;54.692;9.332;2023-07-29T05:19:57;9.90;;;8.70;;
64597;SDS011;51004;54.692;9.332;2023-07-29T05:22:23;10.27;;;8.93;;
64597;SDS011;51004;54.692;9.332;2023-07-29T05:24:50;10.73;;;9.35;;
64597;SDS011;51004;54.692;9.332;2023-07-29T05:27:16;10.50;;;8.57;;
64597;SDS011;51004;54.692;9.332;2023-07-29T05:29:42;10.85;;;9.13;;
64597;SDS011;51004;54.692;9.332;2023-07-29T05:32:08;12.65;;;9.70;;
64597;SDS011;51004;54.692;9.332;2023-07-29T05:34:34;9.82;;;8.77;;
64597;SDS011;51004;54.692;9.332;2023-07-29T05:37:00;10.75;;;9.32;;
64597;SDS011;51004;54.692;9.332;2023-07-29T05:39:26;13.05;;;9.55;;
64597;SDS011;51004;54.692;9.332;2023-07-29T05:41:52;9.98;;;8.98;;
64597;SDS011;51004;54.692;9.332;2023-07-29T05:44:18;11.35;;;10.07;;
64597;SDS011;51004;54.692;9.332;2023-07-29T05:46:44;11.52;;;8.82;;
64597;SDS011;51004;54.692;9.332;2023-07-29T05:49:10;11.48;;;9.70;;
64597;SDS011;51004;54.692;9.332;2023-07-29T05:51:36;9.80;;;8.80;;
64597;SDS011;51004;54.692;9.332;2023-07-29T05:54:02;9.95;;;8.85;;
64597;SDS011;51004;54.692;9.332;2023-07-29T05:56:28;10.82;;;9.60;;
64597;SDS011;51004;54.692;9.332;2023-07-29T05:58:56;13.57;;;9.68;;
64597;SDS011;51004;54.692;9.332;2023-07-29T06:01:22;10.30;;;9.02;;
64597;SDS011;51004;54.692;9.332;2023-07-29T06:03:48;9.95;;;8.93;;
64597;SDS011;51004;54.692;9.332;2023-07-29T06:06:14;10.85;;;9.25;;
64597;SDS011;51004;54.692;9.332;2023-07-29T06:08:40;10.75;;;9.63;;
64597;SDS011;51004;54.692;9.332;2023-07-29T06:11:06;11.07;;;9.73;;
64597;SDS011;51004;54.692;9.332;2023-07-29T06:13:32;9.98;;;8.57;;
64597;SDS011;51004;54.692;9.332;2023-07-29T06:15:58;10.35;;;8.98;;
64597;SDS011;51004;54.692;9.332;2023-07-29T06:18:24;10.40;;;9.18;;
64597;SDS011;51004;54.692;9.332;2023-07-29T06:20:50;10.73;;;8.65;;
64597;SDS011;51004;54.692;9.332;2023-07-29T06:23:16;10.00;;;8.63;;
64597;SDS011;51004;54.692;9.332;2023-07-29T06:25:42;10.05;;;8.75;;
64597;SDS011;51004;54.692;9.332;2023-07-29T06:28:09;9.93;;;8.27;;
64597;SDS011;51004;54.692;9.332;2023-07-29T06:30:35;11.10;;;8.23;;
64597;SDS011;51004;54.692;9.332;2023-07-29T06:33:01;9.68;;;7.82;;
64597;SDS011;51004;54.692;9.332;2023-07-29T06:35:28;10.32;;;8.68;;
64597;SDS011;51004;54.692;9.332;2023-07-29T06:37:54;10.10;;;8.65;;
64597;SDS011;51004;54.692;9.332;2023-07-29T06:40:20;9.77;;;7.85;;
64597;SDS011;51004;54.692;9.332;2023-07-29T06:42:46;8.15;;;7.00;;
64597;SDS011;51004;54.692;9.332;2023-07-29T06:45:12;9.70;;;7.47;;
64597;SDS011;51004;54.692;9.332;2023-07-29T06:47:38;7.93;;;6.88;;
64597;SDS011;51004;54.692;9.332;2023-07-29T06:50:04;7.03;;;6.28;;
64597;SDS011;51004;54.692;9.332;2023-07-29T06:52:30;8.60;;;6.80;;
64597;SDS011;51004;54.692;9.332;2023-07-29T06:54:56;7.28;;;6.45;;
64597;SDS011;51004;54.692;9.332;2023-07-29T06:57:22;8.68;;;6.05;;
64597;SDS011;51004;54.692;9.332;2023-07-29T06:59:47;6.88;;;5.72;;
64597;SDS011;51004;54.692;9.332;2023-07-29T07:02:13;7.97;;;5.97;;
64597;SDS011;51004;54.692;9.332;2023-07-29T07:04:39;7.28;;;5.93;;
64597;SDS011;51004;54.692;9.332;2023-07-29T07:07:05;6.70;;;5.60;;
64597;SDS011;51004;54.692;9.332;2023-07-29T07:09:31;8.32;;;6.40;;
64597;SDS011;51004;54.692;9.332;2023-07-29T07:11:57;8.18;;;6.32;;
64597;SDS011;51004;54.692;9.332;2023-07-29T07:14:23;8.43;;;6.20;;
64597;SDS011;51004;54.692;9.332;2023-07-29T07:16:49;7.97;;;6.32;;
64597;SDS011;51004;54.692;9.332;2023-07-29T07:19:15;7.85;;;6.70;;
64597;SDS011;51004;54.692;9.332;2023-07-29T07:21:41;5.70;;;5.10;;
64597;SDS011;51004;54.692;9.332;2023-07-29T07:24:07;7.18;;;5.78;;
64597;SDS011;51004;54.692;9.332;2023-07-29T07:26:33;8.32;;;6.10;;
64597;SDS011;51004;54.692;9.332;2023-07-29T07:28:59;10.45;;;6.20;;
64597;SDS011;51004;54.692;9.332;2023-07-29T07:31:24;8.02;;;7.13;;
64597;SDS011;51004;54.692;9.332;2023-07-29T07:33:50;7.93;;;6.57;;
64597;SDS011;51004;54.692;9.332;2023-07-29T07:36:16;9.00;;;7.05;;
64597;SDS011;51004;54.692;9.332;2023-07-29T07:38:42;8.30;;;7.30;;
64597;SDS011;51004;54.692;9.332;2023-07-29T07:41:08;8.00;;;7.20;;
64597;SDS011;51004;54.692;9.332;2023-07-29T07:43:34;8.40;;;6.65;;
64597;SDS011;51004;54.692;9.332;2023-07-29T07:46:03;9.20;;;7.15;;
64597;SDS011;51004;54.692;9.332;2023-07-29T07:48:29;7.65;;;6.80;;
64597;SDS011;51004;54.692;9.332;2023-07-29T07:50:55;8.43;;;7.53;;
64597;SDS011;51004;54.692;9.332;2023-07-29T07:53:21;8.88;;;7.97;;
64597;SDS011;51004;54.692;9.332;2023-07-29T07:55:47;8.77;;;6.82;;
64597;SDS011;51004;54.692;9.332;2023-07-29T07:58:13;8.45;;;7.28;;
64597;SDS011;51004;54.692;9.332;2023-07-29T08:00:39;9.77;;;8.43;;
64597;SDS011;51004;54.692;9.332;2023-07-29T08:03:05;9.23;;;8.23;;
64597;SDS011;51004;54.692;9.332;2023-07-29T08:05:31;9.93;;;8.90;;
64597;SDS011;51004;54.692;9.332;2023-07-29T08:07:57;11.43;;;8.82;;
64597;SDS011;51004;54.692;9.332;2023-07-29T08:10:23;10.38;;;8.95;;
64597;SDS011;51004;54.692;9.332;2023-07-29T08:12:49;10.05;;;8.45;;
64597;SDS011;51004;54.692;9.332;2023-07-29T08:15:15;12.07;;;10.40;;
64597;SDS011;51004;54.692;9.332;2023-07-29T08:17:41;12.30;;;10.50;;
64597;SDS011;51004;54.692;9.332;2023-07-29T08:20:07;12.05;;;10.30;;
64597;SDS011;51004;54.692;9.332;2023-07-29T08:22:33;14.43;;;11.15;;
64597;SDS011;51004;54.692;9.332;2023-07-29T08:24:59;13.90;;;10.48;;
64597;SDS011;51004;54.692;9.332;2023-07-29T08:27:25;11.48;;;10.27;;
64597;SDS011;51004;54.692;9.332;2023-07-29T08:29:50;13.35;;;11.13;;
64597;SDS011;51004;54.692;9.332;2023-07-29T08:32:17;12.82;;;10.68;;
64597;SDS011;51004;54.692;9.332;2023-07-29T08:34:43;13.52;;;11.20;;
64597;SDS011;51004;54.692;9.332;2023-07-29T08:37:09;14.35;;;11.80;;
64597;SDS011;51004;54.692;9.332;2023-07-29T08:39:35;14.75;;;12.50;;
64597;SDS011;51004;54.692;9.332;2023-07-29T08:42:02;18.63;;;13.02;;
64597;SDS011;51004;54.692;9.332;2023-07-29T08:44:35;14.65;;;12.23;;
64597;SDS011;51004;54.692;9.332;2023-07-29T08:47:05;15.55;;;13.05;;
64597;SDS011;51004;54.692;9.332;2023-07-29T08:49:31;16.13;;;13.43;;
64597;SDS011;51004;54.692;9.332;2023-07-29T08:51:57;14.75;;;13.25;;
64597;SDS011;51004;54.692;9.332;2023-07-29T08:54:24;19.02;;;13.88;;
64597;SDS011;51004;54.692;9.332;2023-07-29T08:56:50;20.92;;;13.52;;
64597;SDS011;51004;54.692;9.332;2023-07-29T08:59:16;19.38;;;15.35;;
64597;SDS011;51004;54.692;9.332;2023-07-29T09:01:42;17.48;;;14.52;;
64597;SDS011;51004;54.692;9.332;2023-07-29T09:04:08;18.13;;;15.05;;
64597;SDS011;51004;54.692;9.332;2023-07-29T09:06:35;15.20;;;13.35;;
64597;SDS011;51004;54.692;9.332;2023-07-29T09:09:03;19.30;;;14.15;;
64597;SDS011;51004;54.692;9.332;2023-07-29T09:11:29;14.63;;;13.13;;
64597;SDS011;51004;54.692;9.332;2023-07-29T09:13:55;16.75;;;13.77;;
64597;SDS011;51004;54.692;9.332;2023-07-29T09:16:21;18.23;;;14.40;;
64597;SDS011;51004;54.692;9.332;2023-07-29T09:18:49;19.65;;;13.85;;
64597;SDS011;51004;54.692;9.332;2023-07-29T09:21:16;17.42;;;13.98;;
64597;SDS011;51004;54.692;9.332;2023-07-29T09:23:43;17.95;;;14.52;;
64597;SDS011;51004;54.692;9.332;2023-07-29T09:26:09;18.35;;;16.08;;
64597;SDS011;51004;54.692;9.332;2023-07-29T09:28:39;16.38;;;13.82;;
64597;SDS011;51004;54.692;9.332;2023-07-29T09:31:05;18.65;;;15.88;;
64597;SDS011;51004;54.692;9.332;2023-07-29T09:33:35;14.98;;;13.25;;
64597;SDS011;51004;54.692;9.332;2023-07-29T09:36:08;14.73;;;13.20;;
64597;SDS011;51004;54.692;9.332;2023-07-29T09:38:34;15.38;;;12.02;;
64597;SDS011;51004;54.692;9.332;2023-07-29T09:41:01;13.45;;;11.55;;
64597;SDS011;51004;54.692;9.332;2023-07-29T09:43:34;16.55;;;13.90;;
64597;SDS011;51004;54.692;9.332;2023-07-29T09:48:26;16.35;;;13.63;;
64597;SDS011;51004;54.692;9.332;2023-07-29T09:50:53;15.13;;;12.13;;
64597;SDS011;51004;54.692;9.332;2023-07-29T09:53:19;15.70;;;12.60;;
64597;SDS011;51004;54.692;9.332;2023-07-29T09:55:47;14.15;;;11.95;;
64597;SDS011;51004;54.692;9.332;2023-07-29T09:58:13;11.63;;;10.45;;
64597;SDS011;51004;54.692;9.332;2023-07-29T10:00:40;12.38;;;9.77;;
64597;SDS011;51004;54.692;9.332;2023-07-29T10:03:07;9.98;;;8.98;;
64597;SDS011;51004;54.692;9.332;2023-07-29T10:05:33;12.18;;;9.68;;
64597;SDS011;51004;54.692;9.332;2023-07-29T10:08:00;13.27;;;10.82;;
64597;SDS011;51004;54.692;9.332;2023-07-29T10:10:27;14.05;;;10.35;;
64597;SDS011;51004;54.692;9.332;2023-07-29T10:12:55;11.93;;;9.98;;
64597;SDS011;51004;54.692;9.332;2023-07-29T10:15:24;11.82;;;10.60;;
64597;SDS011;51004;54.692;9.332;2023-07-29T10:17:59;12.60;;;10.30;;
64597;SDS011;51004;54.692;9.332;2023-07-29T10:20:27;15.82;;;10.30;;
64597;SDS011;51004;54.692;9.332;2023-07-29T10:22:54;13.45;;;10.07;;
64597;SDS011;51004;54.692;9.332;2023-07-29T10:25:23;11.77;;;9.57;;
64597;SDS011;51004;54.692;9.332;2023-07-29T10:27:53;12.30;;;10.15;;
64597;SDS011;51004;54.692;9.332;2023-07-29T10:30:21;10.10;;;8.15;;
64597;SDS011;51004;54.692;9.332;2023-07-29T10:32:50;10.30;;;8.05;;
64597;SDS011;51004;54.692;9.332;2023-07-29T10:35:36;11.45;;;9.60;;
64597;SDS011;51004;54.692;9.332;2023-07-29T10:38:03;10.30;;;8.40;;
64597;SDS011;51004;54.692;9.332;2023-07-29T10:40:50;13.55;;;10.15;;
64597;SDS011;51004;54.692;9.332;2023-07-29T10:43:23;10.98;;;9.50;;
64597;SDS011;51004;54.692;9.332;2023-07-29T10:45:50;10.98;;;9.27;;
64597;SDS011;51004;54.692;9.332;2023-07-29T10:54:01;7.63;;;6.85;;
64597;SDS011;51004;54.692;9.332;2023-07-29T10:56:28;12.27;;;7.53;;
64597;SDS011;51004;54.692;9.332;2023-07-29T10:58:58;8.82;;;7.20;;
64597;SDS011;51004;54.692;9.332;2023-07-29T11:01:28;8.82;;;6.10;;
64597;SDS011;51004;54.692;9.332;2023-07-29T11:04:01;8.70;;;5.78;;
64597;SDS011;51004;54.692;9.332;2023-07-29T11:06:27;9.60;;;6.32;;
64597;SDS011;51004;54.692;9.332;2023-07-29T11:08:53;7.57;;;6.72;;
64597;SDS011;51004;54.692;9.332;2023-07-29T11:11:19;12.02;;;7.93;;
64597;SDS011;51004;54.692;9.332;2023-07-29T11:13:45;8.77;;;6.32;;
64597;SDS011;51004;54.692;9.332;2023-07-29T11:16:11;8.20;;;5.88;;
64597;SDS011;51004;54.692;9.332;2023-07-29T11:18:41;8.02;;;5.68;;
64597;SDS011;51004;54.692;9.332;2023-07-29T11:21:09;6.72;;;4.97;;
64597;SDS011;51004;54.692;9.332;2023-07-29T11:23:35;9.35;;;5.22;;
64597;SDS011;51004;54.692;9.332;2023-07-29T11:26:02;6.07;;;4.45;;
64597;SDS011;51004;54.692;9.332;2023-07-29T11:28:28;6.18;;;4.03;;
64597;SDS011;51004;54.692;9.332;2023-07-29T11:30:55;6.35;;;4.10;;
64597;SDS011;51004;54.692;9.332;2023-07-29T11:33:21;8.88;;;4.35;;
64597;SDS011;51004;54.692;9.332;2023-07-29T11:35:48;6.80;;;4.10;;
64597;SDS011;51004;54.692;9.332;2023-07-29T11:38:15;7.60;;;3.70;;
64597;SDS011;51004;54.692;9.332;2023-07-29T11:40:42;5.97;;;3.40;;
64597;SDS011;51004;54.692;9.332;2023-07-29T11:43:08;5.72;;;3.85;;
64597;SDS011;51004;54.692;9.332;2023-07-29T11:45:34;4.75;;;3.38;;
64597;SDS011;51004;54.692;9.332;2023-07-29T11:48:03;6.13;;;3.47;;
64597;SDS011;51004;54.692;9.332;2023-07-29T11:50:29;8.40;;;4.15;;
64597;SDS011;51004;54.692;9.332;2023-07-29T11:52:55;6.55;;;3.55;;
64597;SDS011;51004;54.692;9.332;2023-07-29T11:55:21;7.18;;;3.35;;
64597;SDS011;51004;54.692;9.332;2023-07-29T11:57:48;5.88;;;3.22;;
64597;SDS011;51004;54.692;9.332;2023-07-29T12:00:16;4.43;;;2.83;;
64597;SDS011;51004;54.692;9.332;2023-07-29T12:02:43;5.32;;;2.95;;
64597;SDS011;51004;54.692;9.332;2023-07-29T12:05:10;6.45;;;3.40;;
64597;SDS011;51004;54.692;9.332;2023-07-29T12:07:40;6.10;;;3.38;;
64597;SDS011;51004;54.692;9.332;2023-07-29T12:10:07;7.43;;;3.40;;
64597;SDS011;51004;54.692;9.332;2023-07-29T12:12:33;4.78;;;2.38;;
64597;SDS011;51004;54.692;9.332;2023-07-29T12:14:59;5.07;;;2.60;;
64597;SDS011;51004;54.692;9.332;2023-07-29T12:17:25;5.90;;;2.15;;
64597;SDS011;51004;54.692;9.332;2023-07-29T12:19:54;3.97;;;2.20;;
64597;SDS011;51004;54.692;9.332;2023-07-29T12:22:20;4.25;;;1.77;;
64597;SDS011;51004;54.692;9.332;2023-07-29T12:24:46;4.13;;;2.00;;
64597;SDS011;51004;54.692;9.332;2023-07-29T12:27:13;3.70;;;2.25;;
64597;SDS011;51004;54.692;9.332;2023-07-29T12:29:41;3.42;;;2.10;;
64597;SDS011;51004;54.692;9.332;2023-07-29T12:32:07;3.63;;;2.20;;
64597;SDS011;51004;54.692;9.332;2023-07-29T12:34:34;5.88;;;2.20;;
64597;SDS011;51004;54.692;9.332;2023-07-29T12:37:03;5.53;;;2.22;;
64597;SDS011;51004;54.692;9.332;2023-07-29T12:39:31;5.22;;;2.33;;
64597;SDS011;51004;54.692;9.332;2023-07-29T12:42:00;6.35;;;2.92;;
64597;SDS011;51004;54.692;9.332;2023-07-29T12:44:28;6.25;;;2.40;;
64597;SDS011;51004;54.692;9.332;2023-07-29T12:47:07;4.35;;;2.25;;
64597;SDS011;51004;54.692;9.332;2023-07-29T12:49:34;6.05;;;2.60;;
64597;SDS011;51004;54.692;9.332;2023-07-29T12:52:00;12.90;;;2.85;;
64597;SDS011;51004;54.692;9.332;2023-07-29T12:54:26;7.20;;;2.30;;
64597;SDS011;51004;54.692;9.332;2023-07-29T12:56:52;6.40;;;2.30;;
64597;SDS011;51004;54.692;9.332;2023-07-29T12:59:18;5.13;;;2.35;;
64597;SDS011;51004;54.692;9.332;2023-07-29T13:01:44;6.85;;;3.00;;
64597;SDS011;51004;54.692;9.332;2023-07-29T13:04:10;9.10;;;2.63;;
64597;SDS011;51004;54.692;9.332;2023-07-29T13:06:36;6.00;;;2.50;;
64597;SDS011;51004;54.692;9.332;2023-07-29T13:09:02;7.05;;;2.80;;
64597;SDS011;51004;54.692;9.332;2023-07-29T13:11:30;5.40;;;2.15;;
64597;SDS011;51004;54.692;9.332;2023-07-29T13:13:57;6.55;;;2.63;;
64597;SDS011;51004;54.692;9.332;2023-07-29T13:16:26;6.68;;;2.67;;
64597;SDS011;51004;54.692;9.332;2023-07-29T13:18:58;7.88;;;2.47;;
64597;SDS011;51004;54.692;9.332;2023-07-29T13:21:24;6.93;;;3.07;;
64597;SDS011;51004;54.692;9.332;2023-07-29T13:23:51;6.28;;;2.70;;
64597;SDS011;51004;54.692;9.332;2023-07-29T13:26:16;8.02;;;2.70;;
64597;SDS011;51004;54.692;9.332;2023-07-29T13:28:42;7.03;;;2.80;;
64597;SDS011;51004;54.692;9.332;2023-07-29T13:31:08;7.63;;;2.72;;
64597;SDS011;51004;54.692;9.332;2023-07-29T13:33:34;6.97;;;2.60;;
64597;SDS011;51004;54.692;9.332;2023-07-29T13:36:01;6.97;;;2.50;;
64597;SDS011;51004;54.692;9.332;2023-07-29T13:38:28;5.38;;;2.85;;
64597;SDS011;51004;54.692;9.332;2023-07-29T13:40:54;9.18;;;3.35;;
64597;SDS011;51004;54.692;9.332;2023-07-29T13:43:20;9.07;;;2.85;;
64597;SDS011;51004;54.692;9.332;2023-07-29T13:45:46;10.23;;;2.92;;
64597;SDS011;51004;54.692;9.332;2023-07-29T13:48:13;5.13;;;2.78;;
64597;SDS011;51004;54.692;9.332;2023-07-29T13:50:39;8.35;;;2.97;;
64597;SDS011;51004;54.692;9.332;2023-07-29T13:53:06;6.53;;;2.65;;
64597;SDS011;51004;54.692;9.332;2023-07-29T13:55:32;5.25;;;3.05;;
64597;SDS011;51004;54.692;9.332;2023-07-29T13:57:58;6.40;;;2.80;;
64597;SDS011;51004;54.692;9.332;2023-07-29T14:00:24;7.85;;;2.72;;
64597;SDS011;51004;54.692;9.332;2023-07-29T14:02:50;6.10;;;2.75;;
64597;SDS011;51004;54.692;9.332;2023-07-29T14:05:16;7.13;;;2.88;;
64597;SDS011;51004;54.692;9.332;2023-07-29T14:07:42;6.38;;;2.78;;
64597;SDS011;51004;54.692;9.332;2023-07-29T14:10:08;5.15;;;2.78;;
64597;SDS011;51004;54.692;9.332;2023-07-29T14:12:34;6.13;;;2.92;;
64597;SDS011;51004;54.692;9.332;2023-07-29T14:15:00;5.28;;;2.83;;
64597;SDS011;51004;54.692;9.332;2023-07-29T14:17:26;4.97;;;2.55;;
64597;SDS011;51004;54.692;9.332;2023-07-29T14:19:52;6.03;;;3.05;;
64597;SDS011;51004;54.692;9.332;2023-07-29T14:22:18;7.90;;;2.63;;
64597;SDS011;51004;54.692;9.332;2023-07-29T14:24:44;8.00;;;3.53;;
64597;SDS011;51004;54.692;9.332;2023-07-29T14:27:10;5.10;;;2.38;;
64597;SDS011;51004;54.692;9.332;2023-07-29T14:29:36;9.10;;;3.13;;
64597;SDS011;51004;54.692;9.332;2023-07-29T14:32:02;6.93;;;2.83;;
64597;SDS011;51004;54.692;9.332;2023-07-29T14:34:28;6.20;;;2.50;;
64597;SDS011;51004;54.692;9.332;2023-07-29T14:36:54;7.20;;;2.58;;
64597;SDS011;51004;54.692;9.332;2023-07-29T14:39:20;4.80;;;2.45;;
64597;SDS011;51004;54.692;9.332;2023-07-29T14:41:46;5.25;;;2.40;;
64597;SDS011;51004;54.692;9.332;2023-07-29T14:44:12;4.38;;;2.00;;
64597;SDS011;51004;54.692;9.332;2023-07-29T14:46:38;6.72;;;2.00;;
64597;SDS011;51004;54.692;9.332;2023-07-29T14:49:04;4.20;;;1.65;;
64597;SDS011;51004;54.692;9.332;2023-07-29T14:51:30;6.55;;;2.00;;